Weather History for Olathe New Century, KS

Change the Weather History Date:

Thursday, February 21, 2013

  Actual Average Record
Temperature  
Mean Temperature 23 °F -  
Max Temperature 27 °F 44 °F 63 °F (2000)
Min Temperature 19 °F 26 °F 15 °F (2008)
Degree Days  
Heating Degree Days 42    
Moisture  
Dew Point 21 °F    
Average Humidity 87    
Maximum Humidity 96    
Minimum Humidity 62    
Precipitation  
Precipitation 0.66 in - - ()
Sea Level Pressure  
Sea Level Pressure 29.84 in    
Wind  
Wind Speed 12 mph (ENE)    
Max Wind Speed 26 mph    
Max Gust Speed 36 mph    
Visibility 2 miles    
Events Fog , Rain , Snow    
Averages and records for this station are not official NWS values.
T = Trace of Precipitation, MM = Missing Value Source: NWS Daily Summary

Daily Weather History Graph

Daily Weather History Graph

Search for Another Location

Airport:

Trip Planner

Search our weather history database for the weather conditions in past years. The results will help you decide how hot, cold, wet, or windy it might be!

Date:

Astronomy

Feb. 21, 2013 Rise Set
Actual Time 7:02 AM CST 6:04 PM CST
Civil Twilight 6:35 AM CST 6:31 PM CST
Nautical Twilight 6:04 AM CST 7:02 PM CST
Astronomical Twilight 5:33 AM CST 7:32 PM CST
Moon 2:21 PM CST (2/21) 4:06 AM CST (2/21)
Length of Visible Light 11h 55m
Length of Day
11h 01m
Waxing Gibbous, 84% of the Moon is Illuminated
Feb 21
Waxing Gibbous
Feb 25
Full
Mar 4
Last Quarter
Mar 11
New
Mar 19
First Quarter

Hourly Weather History & Observations

Time (CST) Temp. Windchill Dew Point Humidity Pressure Visibility Wind Dir Wind Speed Gust Speed Precip Events Conditions
12:53 AM 24.1 °F 15.2 °F 12.9 °F 62% 30.21 in 10.0 mi East 8.1 mph 18.4 mph N/A   Overcast
1:53 AM 23.0 °F 10.1 °F 12.9 °F 65% 30.16 in 10.0 mi ENE 15.0 mph 23.0 mph N/A   Overcast
2:53 AM 23.0 °F 9.6 °F 12.9 °F 65% 30.14 in 10.0 mi East 16.1 mph 19.6 mph N/A   Overcast
3:53 AM 21.9 °F 8.7 °F 12.0 °F 66% 30.09 in 10.0 mi ENE 15.0 mph 23.0 mph N/A   Overcast
5:48 AM 21.2 °F 8.3 °F 14.0 °F 74% 30.03 in 2.5 mi East 13.8 mph 21.9 mph 0.00 in Snow Light Snow
5:53 AM 21.9 °F 9.2 °F 14.0 °F 72% 30.06 in 2.5 mi ENE 13.8 mph 24.2 mph 0.00 in Snow Light Snow
6:03 AM 21.2 °F 8.3 °F 15.8 °F 80% 30.00 in 4.0 mi ENE 13.8 mph 21.9 mph 0.00 in Snow Light Snow
6:15 AM 21.2 °F 8.9 °F 15.8 °F 80% 30.00 in 1.8 mi ENE 12.7 mph 20.7 mph 0.00 in Snow Light Snow
6:34 AM 21.2 °F 6.8 °F 15.8 °F 80% 29.98 in 0.8 mi ENE 17.3 mph - 0.00 in Snow Light Snow
6:46 AM 19.4 °F 6.0 °F 17.6 °F 93% 29.98 in 0.2 mi ENE 13.8 mph 23.0 mph 0.02 in Fog , Snow Heavy Snow
6:53 AM 19.9 °F 6.2 °F 17.1 °F 89% 30.02 in 0.2 mi ENE 15.0 mph 21.9 mph 0.03 in Fog , Snow Heavy Snow
7:05 AM 19.4 °F 6.6 °F 17.6 °F 93% 29.97 in 0.2 mi ENE 12.7 mph - 0.02 in Fog , Snow Heavy Snow
7:53 AM 19.9 °F 8.6 °F 18.0 °F 92% 30.04 in 0.2 mi ENE 10.4 mph 18.4 mph 0.15 in Fog , Snow Heavy Snow
8:53 AM 19.9 °F 5.2 °F 18.0 °F 92% 29.99 in 0.2 mi ENE 17.3 mph 26.5 mph 0.17 in Fog , Snow Heavy Snow
9:08 AM 19.4 °F 4.1 °F 17.6 °F 93% 29.94 in 0.2 mi East 18.4 mph 33.4 mph 0.04 in Fog , Snow Heavy Snow
9:39 AM 21.2 °F 5.2 °F 17.6 °F 86% 29.90 in 0.2 mi East 21.9 mph 35.7 mph 0.16 in Fog , Snow Heavy Snow
9:51 AM 21.2 °F 5.2 °F 17.6 °F 86% 29.89 in 0.2 mi East 21.9 mph 32.2 mph 0.18 in Fog , Snow Snow
9:53 AM 21.0 °F 3.9 °F 18.0 °F 88% 29.92 in 0.2 mi East 25.3 mph 34.5 mph 0.18 in Fog , Snow Snow
10:06 AM 21.2 °F 3.9 °F 17.6 °F 86% 29.86 in 0.2 mi ENE 26.5 mph 35.7 mph 0.01 in Fog , Snow Heavy Snow
10:45 AM 21.2 °F 6.0 °F 17.6 °F 86% 29.86 in 0.2 mi East 19.6 mph 32.2 mph 0.02 in Fog , Snow Heavy Snow
10:53 AM 21.9 °F 7.3 °F 18.0 °F 85% 29.90 in 0.2 mi East 18.4 mph 27.6 mph 0.03 in Fog , Snow Snow
11:04 AM 21.2 °F 6.8 °F 17.6 °F 86% 29.87 in 0.5 mi East 17.3 mph 27.6 mph 0.00 in Fog , Snow Snow
11:16 AM 21.2 °F 6.0 °F 17.6 °F 86% 29.87 in 0.5 mi East 19.6 mph 27.6 mph 0.01 in Fog , Snow Light Snow
11:44 AM 23.0 °F 8.0 °F 19.4 °F 86% 29.84 in 1.5 mi East 20.7 mph 26.5 mph 0.02 in Snow Light Snow
11:53 AM 23.0 °F 8.0 °F 18.0 °F 81% 29.88 in 1.0 mi East 20.7 mph 29.9 mph 0.02 in   Overcast
12:16 PM 23.0 °F 8.7 °F 19.4 °F 86% 29.82 in 1.8 mi East 18.4 mph 25.3 mph 0.00 in Rain Light Freezing Rain
12:53 PM 24.1 °F 10.1 °F 19.9 °F 84% 29.84 in 1.8 mi East 18.4 mph 29.9 mph 0.00 in Rain Light Freezing Rain
12:56 PM 24.8 °F 10.0 °F 19.4 °F 80% 29.80 in 1.8 mi East 21.9 mph 31.1 mph 0.00 in   Overcast
1:11 PM 24.8 °F 10.3 °F 19.4 °F 80% 29.79 in 1.5 mi East 20.7 mph 32.2 mph 0.00 in Rain Light Freezing Rain
1:28 PM 24.8 °F 11.1 °F 21.2 °F 86% 29.78 in 2.0 mi East 18.4 mph 28.8 mph 0.00 in Rain Light Freezing Rain
1:53 PM 25.0 °F 11.3 °F 21.0 °F 85% 29.81 in 3.0 mi East 18.4 mph 26.5 mph 0.00 in Rain Light Freezing Rain
2:03 PM 24.8 °F 11.5 °F 21.2 °F 86% 29.76 in 3.0 mi East 17.3 mph 28.8 mph 0.00 in   Overcast
2:18 PM 24.8 °F 12.4 °F 21.2 °F 86% 29.76 in 2.5 mi East 15.0 mph 24.2 mph 0.00 in   Overcast
2:26 PM 24.8 °F 11.9 °F 21.2 °F 86% 29.76 in 3.0 mi East 16.1 mph 24.2 mph 0.00 in   Overcast
2:36 PM 24.8 °F 11.5 °F 21.2 °F 86% 29.76 in 2.5 mi East 17.3 mph 24.2 mph 0.00 in Rain Light Freezing Rain
2:53 PM 25.0 °F 14.2 °F 21.9 °F 88% 29.80 in 2.5 mi ESE 11.5 mph 23.0 mph 0.00 in Rain Light Freezing Rain
3:53 PM 26.1 °F 13.6 °F 23.0 °F 88% 29.78 in 1.8 mi ESE 16.1 mph 21.9 mph 0.00 in Rain Light Freezing Rain
4:10 PM 26.6 °F 15.7 °F 23.0 °F 86% 29.74 in 1.2 mi ESE 12.7 mph - 0.00 in Snow Light Snow
4:25 PM 26.6 °F 15.7 °F 24.8 °F 93% 29.75 in 0.8 mi ESE 12.7 mph 20.7 mph 0.00 in Snow Light Snow
4:51 PM 26.6 °F 16.8 °F 24.8 °F 93% 29.75 in 0.2 mi ESE 10.4 mph - 0.00 in Fog , Snow Snow
4:53 PM 26.1 °F 16.8 °F 24.1 °F 92% 29.79 in 0.2 mi ESE 9.2 mph - 0.00 in Fog , Snow Snow
5:18 PM 26.6 °F 21.2 °F 24.8 °F 93% 29.76 in 0.5 mi East 4.6 mph - 0.01 in Fog , Snow Light Snow
5:43 PM 26.6 °F 21.2 °F 24.8 °F 93% 29.76 in 1.0 mi East 4.6 mph - 0.02 in Snow Light Snow
5:53 PM 27.0 °F 21.6 °F 24.1 °F 89% 29.80 in 1.5 mi East 4.6 mph - 0.02 in Snow Light Snow
5:58 PM 26.6 °F 21.2 °F 24.8 °F 93% 29.77 in 2.0 mi East 4.6 mph - 0.00 in Snow Light Snow
6:15 PM 26.6 °F 21.2 °F 24.8 °F 93% 29.77 in 4.0 mi East 4.6 mph - 0.00 in   Overcast
6:32 PM 26.6 °F 22.6 °F 24.8 °F 93% 29.76 in 1.8 mi East 3.5 mph - 0.00 in Snow Light Snow
6:36 PM 26.6 °F - 24.8 °F 93% 29.76 in 0.8 mi Calm Calm - 0.01 in Snow Light Snow
6:50 PM 26.6 °F 22.6 °F 24.8 °F 93% 29.75 in 0.2 mi ENE 3.5 mph - 0.04 in Fog , Snow Heavy Snow
6:53 PM 26.1 °F - 24.1 °F 92% 29.79 in 0.2 mi Calm Calm - 0.05 in Fog , Snow Heavy Snow
7:00 PM 26.6 °F 20.0 °F 24.8 °F 93% 29.75 in 0.5 mi ENE 5.8 mph - 0.00 in Fog , Snow Snow
7:13 PM 26.6 °F 21.2 °F 24.8 °F 93% 29.75 in 1.0 mi East 4.6 mph - 0.00 in Snow Light Snow
7:22 PM 26.6 °F 21.2 °F 24.8 °F 93% 29.76 in 2.0 mi ENE 4.6 mph - 0.00 in Snow Light Snow
7:34 PM 26.6 °F - 24.8 °F 93% 29.76 in 3.0 mi Calm Calm - 0.00 in Snow Light Snow
7:53 PM 26.1 °F - 25.0 °F 96% 29.81 in 6.0 mi Calm Calm - 0.00 in   Overcast
8:20 PM 26.6 °F - 24.8 °F 93% 29.76 in 2.5 mi Calm Calm - 0.00 in Snow Light Snow
8:30 PM 26.6 °F 22.6 °F 24.8 °F 93% 29.76 in 1.2 mi NNE 3.5 mph - 0.00 in Snow Light Snow
8:53 PM 26.1 °F 21.9 °F 24.1 °F 92% 29.79 in 1.8 mi NE 3.5 mph - 0.01 in Snow Light Snow
8:59 PM 26.6 °F 22.6 °F 24.8 °F 93% 29.76 in 2.0 mi NNE 3.5 mph - 0.00 in Snow Light Snow
9:07 PM 26.6 °F 22.6 °F 24.8 °F 93% 29.76 in 2.5 mi NNE 3.5 mph - 0.00 in Snow Light Snow
9:22 PM 26.6 °F 22.6 °F 24.8 °F 93% 29.75 in 3.0 mi NNE 3.5 mph - 0.00 in   Overcast
9:33 PM 26.6 °F 21.2 °F 24.8 °F 93% 29.75 in 3.0 mi NNE 4.6 mph - 0.00 in Snow Light Snow
9:43 PM 26.6 °F 20.0 °F 23.0 °F 86% 29.75 in 1.8 mi NE 5.8 mph - 0.00 in Snow Light Snow
9:53 PM 26.1 °F 20.5 °F 23.0 °F 88% 29.79 in 1.0 mi NNE 4.6 mph - 0.00 in Snow Light Snow
10:13 PM 24.8 °F 19.1 °F 23.0 °F 93% 29.76 in 1.5 mi NE 4.6 mph - 0.00 in Snow Light Snow
10:26 PM 24.8 °F - 23.0 °F 93% 29.76 in 2.5 mi Calm Calm - 0.00 in   Overcast
10:33 PM 24.8 °F 20.5 °F 23.0 °F 93% 29.76 in 4.0 mi NNE 3.5 mph - 0.00 in   Overcast
10:48 PM 24.8 °F 19.1 °F 21.2 °F 86% 29.76 in 6.0 mi NNE 4.6 mph - 0.00 in   Overcast
10:53 PM 25.0 °F 20.7 °F 21.9 °F 88% 29.81 in 6.0 mi Variable 3.5 mph - 0.00 in   Overcast
11:00 PM 24.8 °F 19.1 °F 21.2 °F 86% 29.77 in 6.0 mi Variable 4.6 mph - N/A   Overcast
11:30 PM 24.8 °F 20.5 °F 21.2 °F 86% 29.77 in 6.0 mi NNW 3.5 mph - N/A   Overcast
11:51 PM 24.8 °F - 21.2 °F 86% 29.77 in 6.0 mi Calm Calm - N/A   Overcast
11:53 PM 24.1 °F - 21.9 °F 91% 29.81 in 6.0 mi Calm Calm - N/A   Overcast